createdAt,value
2022-07-28T00:02:05.170Z,5.88
2022-07-28T00:04:33.220Z,6.38
2022-07-28T00:06:59.955Z,6.28
2022-07-28T00:09:28.150Z,6.18
2022-07-28T00:11:55.177Z,6.00
2022-07-28T00:14:22.393Z,6.00
2022-07-28T00:16:49.092Z,5.25
2022-07-28T00:19:16.048Z,6.30
2022-07-28T00:21:42.768Z,6.25
2022-07-28T00:24:09.623Z,7.43
2022-07-28T00:26:36.526Z,7.18
2022-07-28T00:29:03.773Z,6.68
2022-07-28T00:31:30.639Z,6.97
2022-07-28T00:33:57.481Z,7.60
2022-07-28T00:36:25.678Z,9.00
2022-07-28T00:38:52.574Z,8.90
2022-07-28T00:41:20.720Z,8.32
2022-07-28T00:43:49.581Z,9.18
2022-07-28T00:46:19.706Z,9.75
2022-07-28T00:48:52.871Z,10.00
2022-07-28T00:51:26.773Z,10.60
2022-07-28T00:53:54.197Z,11.85
2022-07-28T00:56:21.478Z,13.00
2022-07-28T00:58:48.871Z,13.68
2022-07-28T01:01:19.934Z,13.43
2022-07-28T01:03:57.836Z,13.02
2022-07-28T01:06:59.774Z,12.82
2022-07-28T01:09:50.496Z,13.38
2022-07-28T01:12:50.203Z,13.65
2022-07-28T01:15:26.217Z,14.38
2022-07-28T01:18:14.531Z,14.40
2022-07-28T01:20:52.733Z,13.43
2022-07-28T01:23:31.700Z,13.75
2022-07-28T01:26:21.001Z,13.55
2022-07-28T01:29:03.011Z,13.52
2022-07-28T01:31:40.308Z,14.25
2022-07-28T01:34:15.435Z,13.23
2022-07-28T01:36:46.547Z,12.23
2022-07-28T01:39:15.315Z,11.02
2022-07-28T01:41:44.503Z,11.23
2022-07-28T01:44:18.435Z,11.77
2022-07-28T01:46:46.563Z,13.00
2022-07-28T01:49:14.373Z,12.43
2022-07-28T01:51:42.667Z,15.73
2022-07-28T01:54:12.303Z,17.98
2022-07-28T01:56:40.972Z,17.50
2022-07-28T01:59:11.946Z,15.05
2022-07-28T02:01:43.730Z,14.30
2022-07-28T02:04:30.158Z,13.82
2022-07-28T02:06:57.710Z,12.63
2022-07-28T02:09:24.947Z,12.65
2022-07-28T02:11:54.146Z,12.57
2022-07-28T02:14:25.669Z,12.10
2022-07-28T02:16:57.223Z,11.38
2022-07-28T02:19:26.552Z,11.50
2022-07-28T02:21:55.296Z,11.25
2022-07-28T02:24:26.520Z,10.95
2022-07-28T02:27:00.928Z,10.32
2022-07-28T02:29:50.405Z,10.93
2022-07-28T02:32:27.876Z,10.45
2022-07-28T02:35:09.506Z,10.40
2022-07-28T02:37:45.309Z,10.18
2022-07-28T02:40:15.547Z,10.63
2022-07-28T02:42:47.043Z,9.35
2022-07-28T02:45:16.590Z,9.82
2022-07-28T02:47:48.873Z,10.52
2022-07-28T02:50:18.090Z,9.75
2022-07-28T02:52:46.753Z,10.13
2022-07-28T02:55:15.838Z,10.45
2022-07-28T02:57:45.450Z,8.90
2022-07-28T03:00:12.911Z,9.57
2022-07-28T03:02:41.516Z,9.70
2022-07-28T03:05:11.659Z,10.02
2022-07-28T03:07:43.798Z,10.30
2022-07-28T03:10:33.650Z,10.52
2022-07-28T03:13:07.374Z,10.90
2022-07-28T03:15:35.151Z,10.85
2022-07-28T03:18:06.212Z,10.88
2022-07-28T03:20:34.369Z,9.90
2022-07-28T03:23:02.218Z,10.77
2022-07-28T03:25:43.979Z,9.88
2022-07-28T03:28:18.085Z,10.25
2022-07-28T03:30:52.737Z,11.13
2022-07-28T03:33:20.374Z,10.77
2022-07-28T03:35:51.625Z,11.15
2022-07-28T03:38:26.075Z,11.05
2022-07-28T03:40:55.805Z,11.38
2022-07-28T03:43:25.296Z,11.95
2022-07-28T03:45:52.308Z,11.50
2022-07-28T03:48:19.047Z,13.13
2022-07-28T03:50:45.720Z,13.70
2022-07-28T03:53:25.259Z,13.10
2022-07-28T03:55:53.572Z,13.07
2022-07-28T03:58:26.205Z,13.25
2022-07-28T04:00:56.853Z,14.73
2022-07-28T04:03:36.877Z,14.63
2022-07-28T04:06:14.186Z,13.60
2022-07-28T04:08:42.024Z,12.20
2022-07-28T04:11:08.700Z,13.45
2022-07-28T04:13:37.235Z,14.30
2022-07-28T04:16:05.065Z,15.93
2022-07-28T04:18:32.132Z,16.05
2022-07-28T04:20:59.385Z,15.50
2022-07-28T04:23:26.199Z,16.10
2022-07-28T04:25:53.129Z,15.40
2022-07-28T04:28:19.808Z,15.48
2022-07-28T04:30:46.496Z,14.73
2022-07-28T04:33:13.514Z,13.10
2022-07-28T04:35:40.769Z,12.10
2022-07-28T04:38:07.868Z,13.27
2022-07-28T04:40:34.835Z,14.68
2022-07-28T04:43:01.854Z,17.80
2022-07-28T04:45:28.617Z,18.77
2022-07-28T04:47:55.319Z,17.65
2022-07-28T04:50:22.006Z,19.15
2022-07-28T04:52:49.891Z,16.95
2022-07-28T04:55:17.802Z,17.17
2022-07-28T04:57:44.840Z,16.38
2022-07-28T05:00:13.910Z,15.38
2022-07-28T05:02:45.553Z,15.27
2022-07-28T05:05:13.118Z,16.38
2022-07-28T05:07:40.935Z,16.92
2022-07-28T05:10:10.690Z,17.77
2022-07-28T05:12:37.605Z,18.45
2022-07-28T05:15:06.335Z,17.85
2022-07-28T05:17:33.087Z,18.10
2022-07-28T05:20:00.140Z,18.27
2022-07-28T05:22:30.776Z,18.30
2022-07-28T05:24:57.780Z,19.00
2022-07-28T05:27:24.568Z,20.25
2022-07-28T05:29:51.832Z,20.73
2022-07-28T05:32:18.722Z,19.23
2022-07-28T05:34:45.866Z,17.67
2022-07-28T05:37:12.748Z,18.45
2022-07-28T05:39:39.408Z,16.55
2022-07-28T05:42:06.465Z,14.73
2022-07-28T05:44:37.905Z,15.18
2022-07-28T05:47:05.995Z,19.55
2022-07-28T05:49:32.848Z,16.35
2022-07-28T05:51:59.661Z,16.70
2022-07-28T05:54:26.375Z,16.05
2022-07-28T05:56:53.195Z,15.38
2022-07-28T05:59:19.908Z,16.70
2022-07-28T06:01:46.797Z,18.00
2022-07-28T06:04:27.780Z,15.57
2022-07-28T06:06:54.783Z,14.25
2022-07-28T06:09:21.470Z,16.75
2022-07-28T06:11:49.904Z,15.40
2022-07-28T06:14:16.942Z,15.38
2022-07-28T06:16:44.982Z,14.18
2022-07-28T06:19:11.820Z,13.25
2022-07-28T06:21:38.495Z,12.27
2022-07-28T06:24:07.216Z,11.75
2022-07-28T06:26:34.733Z,15.18
2022-07-28T06:29:01.456Z,10.18
2022-07-28T06:31:28.214Z,11.35
2022-07-28T06:33:55.130Z,10.57
2022-07-28T06:36:22.094Z,10.95
2022-07-28T06:38:49.652Z,11.77
2022-07-28T06:41:16.576Z,10.43
2022-07-28T06:43:44.761Z,10.65
2022-07-28T06:46:11.745Z,9.93
2022-07-28T06:48:39.617Z,10.77
2022-07-28T06:51:06.467Z,10.60
2022-07-28T06:53:33.773Z,10.38
2022-07-28T06:56:00.931Z,8.93
2022-07-28T06:58:27.666Z,9.70
2022-07-28T07:00:54.898Z,9.90
2022-07-28T07:03:21.734Z,9.70
2022-07-28T07:05:50.110Z,8.43
2022-07-28T07:08:20.921Z,9.48
2022-07-28T07:10:47.699Z,9.75
2022-07-28T07:13:14.599Z,9.70
2022-07-28T07:15:41.532Z,9.50
2022-07-28T07:18:08.348Z,10.57
2022-07-28T07:20:35.132Z,11.38
2022-07-28T07:23:01.810Z,10.07
2022-07-28T07:25:28.507Z,10.50
2022-07-28T07:27:55.097Z,9.63
2022-07-28T07:30:21.813Z,10.27
2022-07-28T07:32:49.427Z,11.05
2022-07-28T07:35:16.090Z,9.43
2022-07-28T07:37:42.789Z,10.68
2022-07-28T07:40:10.127Z,10.40
2022-07-28T07:42:36.889Z,10.18
2022-07-28T07:45:03.880Z,10.15
2022-07-28T07:47:31.250Z,10.05
2022-07-28T07:49:58.052Z,10.32
2022-07-28T07:52:24.689Z,10.90
2022-07-28T07:54:51.329Z,11.20
2022-07-28T07:57:17.924Z,10.65
2022-07-28T07:59:44.682Z,8.85
2022-07-28T08:02:11.526Z,9.55
2022-07-28T08:04:38.549Z,9.02
2022-07-28T08:07:06.546Z,9.75
2022-07-28T08:09:34.790Z,11.07
2022-07-28T08:12:01.563Z,10.45
2022-07-28T08:14:28.558Z,10.05
2022-07-28T08:16:56.759Z,10.07
2022-07-28T08:19:23.745Z,10.10
2022-07-28T08:21:51.084Z,10.57
2022-07-28T08:24:33.106Z,11.32
2022-07-28T08:27:01.060Z,12.13
2022-07-28T08:29:27.675Z,11.48
2022-07-28T08:31:54.469Z,11.85
2022-07-28T08:34:26.345Z,11.80
2022-07-28T08:36:58.566Z,10.35
2022-07-28T08:39:25.334Z,8.38
2022-07-28T08:41:59.102Z,8.75
2022-07-28T08:44:30.856Z,9.75
2022-07-28T08:46:59.388Z,9.10
2022-07-28T08:49:28.146Z,9.73
2022-07-28T08:51:58.070Z,9.27
2022-07-28T08:54:28.125Z,10.05
2022-07-28T08:56:55.944Z,9.07
2022-07-28T09:00:01.592Z,8.98
2022-07-28T09:02:31.152Z,9.45
2022-07-28T09:05:03.957Z,10.15
2022-07-28T09:07:32.221Z,10.57
2022-07-28T09:10:02.491Z,11.55
2022-07-28T09:12:29.818Z,11.02
2022-07-28T09:14:56.504Z,11.27
2022-07-28T09:17:23.132Z,11.00
2022-07-28T09:19:49.851Z,10.13
2022-07-28T09:22:16.861Z,9.80
2022-07-28T09:24:46.603Z,10.15
2022-07-28T09:27:15.087Z,10.10
2022-07-28T09:29:45.926Z,10.52
2022-07-28T09:32:19.256Z,13.43
2022-07-28T09:34:48.081Z,13.95
2022-07-28T09:37:27.367Z,14.00
2022-07-28T09:39:59.631Z,13.18
2022-07-28T09:42:26.763Z,13.52
2022-07-28T09:45:24.542Z,14.20
2022-07-28T09:48:11.704Z,13.15
2022-07-28T09:50:40.932Z,14.48
2022-07-28T09:53:27.544Z,14.45
2022-07-28T09:55:59.821Z,14.73
2022-07-28T09:58:27.604Z,14.32
2022-07-28T10:01:12.951Z,14.00
2022-07-28T10:03:43.048Z,14.20
2022-07-28T10:06:34.269Z,14.02
2022-07-28T10:09:03.506Z,12.93
2022-07-28T10:11:30.628Z,13.52
2022-07-28T10:13:59.286Z,11.82
2022-07-28T10:16:34.221Z,12.43
2022-07-28T10:19:03.307Z,10.57
2022-07-28T10:21:34.185Z,8.27
2022-07-28T10:24:05.754Z,7.55
2022-07-28T10:26:38.602Z,7.18
2022-07-28T10:29:09.184Z,7.60
2022-07-28T10:31:51.434Z,7.60
2022-07-28T10:34:39.678Z,7.47
2022-07-28T10:37:10.368Z,8.80
2022-07-28T10:39:44.690Z,8.90
2022-07-28T10:42:12.611Z,10.52
2022-07-28T10:44:41.680Z,10.60
2022-07-28T10:47:18.080Z,9.43
2022-07-28T10:49:48.558Z,8.98
2022-07-28T10:55:33.747Z,7.13
2022-07-28T10:58:39.010Z,7.85
2022-07-28T11:01:10.674Z,8.02
2022-07-28T11:03:47.045Z,7.88
2022-07-28T11:06:31.281Z,8.38
2022-07-28T11:09:00.064Z,7.60
2022-07-28T11:11:45.262Z,8.45
2022-07-28T11:14:37.764Z,7.90
2022-07-28T11:17:04.817Z,6.82
2022-07-28T11:19:55.897Z,6.90
2022-07-28T11:22:34.863Z,7.03
2022-07-28T11:25:18.667Z,6.82
2022-07-28T11:27:51.503Z,7.22
2022-07-28T11:30:33.887Z,6.97
2022-07-28T11:33:01.381Z,7.30
2022-07-28T11:35:40.263Z,7.30
2022-07-28T11:38:12.566Z,7.20
2022-07-28T11:40:43.299Z,6.55
2022-07-28T11:43:36.006Z,7.70
2022-07-28T11:46:07.008Z,7.07
2022-07-28T11:48:36.965Z,6.97
2022-07-28T11:51:03.576Z,6.68
2022-07-28T11:53:35.555Z,6.88
2022-07-28T11:56:07.721Z,8.25
2022-07-28T11:58:35.199Z,7.68
2022-07-28T12:01:17.998Z,8.00
2022-07-28T12:03:55.002Z,7.80
2022-07-28T12:06:29.230Z,7.93
2022-07-28T12:09:05.605Z,7.35
2022-07-28T12:11:35.214Z,7.70
2022-07-28T12:14:06.998Z,7.03
2022-07-28T12:16:39.661Z,7.40
2022-07-28T12:19:07.346Z,6.78
2022-07-28T12:21:47.832Z,7.65
2022-07-28T12:24:45.785Z,7.70
2022-07-28T12:27:15.274Z,7.25
2022-07-28T12:29:43.476Z,8.07
2022-07-28T12:32:10.669Z,7.75
2022-07-28T12:34:40.769Z,8.65
2022-07-28T12:37:09.998Z,8.02
2022-07-28T12:39:39.842Z,7.68
2022-07-28T12:42:08.357Z,7.90
2022-07-28T12:44:39.916Z,8.40
2022-07-28T12:47:12.688Z,8.25
2022-07-28T12:49:42.528Z,8.73
2022-07-28T12:52:23.879Z,8.45
2022-07-28T12:54:55.043Z,8.50
2022-07-28T12:57:48.139Z,9.07
2022-07-28T13:00:19.639Z,7.95
2022-07-28T13:02:47.428Z,8.63
2022-07-28T13:05:33.078Z,8.65
2022-07-28T13:08:05.208Z,8.48
2022-07-28T13:10:32.779Z,7.88
2022-07-28T13:13:01.682Z,7.78
2022-07-28T13:15:28.392Z,8.55
2022-07-28T13:17:57.120Z,8.23
2022-07-28T13:20:24.486Z,8.25
2022-07-28T13:22:52.701Z,8.35
2022-07-28T13:25:20.235Z,8.73
2022-07-28T13:27:52.231Z,8.80
2022-07-28T13:30:21.821Z,9.38
2022-07-28T13:32:49.319Z,7.75
2022-07-28T13:35:18.715Z,7.60
2022-07-28T13:37:46.116Z,7.80
2022-07-28T13:40:13.069Z,8.07
2022-07-28T13:42:39.710Z,8.27
2022-07-28T13:45:06.859Z,6.78
2022-07-28T13:47:38.953Z,7.28
2022-07-28T13:50:07.339Z,6.50
2022-07-28T13:52:37.355Z,6.70
2022-07-28T13:55:06.374Z,6.97
2022-07-28T13:57:36.443Z,6.93
2022-07-28T14:00:08.428Z,6.60
2022-07-28T14:02:35.911Z,8.05
2022-07-28T14:05:04.650Z,5.95
2022-07-28T14:07:31.354Z,6.03
2022-07-28T14:09:58.674Z,6.40
2022-07-28T14:12:26.400Z,5.68
2022-07-28T14:14:53.057Z,6.50
2022-07-28T14:20:10.807Z,6.35
2022-07-28T14:22:38.327Z,7.13
2022-07-28T14:25:05.435Z,6.97
2022-07-28T14:27:32.672Z,6.80
2022-07-28T14:29:59.304Z,7.80
2022-07-28T14:32:31.367Z,7.22
2022-07-28T14:34:58.019Z,6.97
2022-07-28T14:37:25.275Z,7.05
2022-07-28T14:39:51.995Z,7.03
2022-07-28T14:42:19.273Z,6.97
2022-07-28T14:44:45.935Z,7.60
2022-07-28T14:47:12.816Z,7.70
2022-07-28T14:49:57.786Z,7.85
2022-07-28T14:52:26.513Z,7.60
2022-07-28T14:54:56.833Z,7.05
2022-07-28T14:57:46.859Z,7.85
2022-07-28T15:00:13.573Z,7.72
2022-07-28T15:02:40.974Z,7.78
2022-07-28T15:05:09.036Z,7.65
2022-07-28T15:07:36.191Z,6.50
2022-07-28T15:10:06.479Z,7.15
2022-07-28T15:12:33.203Z,7.70
2022-07-28T15:14:59.848Z,7.50
2022-07-28T15:17:26.538Z,7.38
2022-07-28T15:19:53.312Z,8.40
2022-07-28T15:22:19.999Z,7.75
2022-07-28T15:24:52.938Z,7.05
2022-07-28T15:27:19.527Z,7.18
2022-07-28T15:29:47.602Z,7.38
2022-07-28T15:32:19.582Z,7.35
2022-07-28T15:34:53.986Z,6.10
2022-07-28T15:37:20.558Z,6.28
2022-07-28T15:39:47.665Z,6.82
2022-07-28T15:42:14.781Z,7.45
2022-07-28T15:44:41.457Z,7.18
2022-07-28T15:47:08.473Z,7.55
2022-07-28T15:49:36.022Z,7.68
2022-07-28T15:52:03.029Z,7.45
2022-07-28T15:54:29.743Z,7.93
2022-07-28T15:56:56.487Z,7.93
2022-07-28T15:59:23.222Z,7.50
2022-07-28T16:01:49.867Z,8.20
2022-07-28T16:04:16.855Z,8.80
2022-07-28T16:07:02.345Z,7.63
2022-07-28T16:09:45.501Z,8.25
2022-07-28T16:12:14.410Z,7.93
2022-07-28T16:14:41.882Z,8.27
2022-07-28T16:17:09.780Z,8.82
2022-07-28T16:19:48.419Z,8.82
2022-07-28T16:22:16.896Z,8.18
2022-07-28T16:24:43.648Z,8.32
2022-07-28T16:27:11.533Z,7.82
2022-07-28T16:29:38.282Z,8.60
2022-07-28T16:32:05.418Z,8.30
2022-07-28T16:34:32.095Z,7.82
2022-07-28T16:36:58.722Z,8.10
2022-07-28T16:39:25.342Z,8.25
2022-07-28T16:41:53.290Z,8.60
2022-07-28T16:44:20.286Z,7.28
2022-07-28T16:46:47.424Z,8.10
2022-07-28T16:49:16.135Z,8.13
2022-07-28T16:51:43.290Z,8.35
2022-07-28T16:54:10.229Z,9.18
2022-07-28T16:56:36.935Z,10.32
2022-07-28T16:59:03.853Z,10.38
2022-07-28T17:01:30.966Z,9.85
2022-07-28T17:03:57.638Z,9.80
2022-07-28T17:06:25.329Z,10.23
2022-07-28T17:08:52.101Z,10.07
2022-07-28T17:11:18.870Z,10.38
2022-07-28T17:13:45.740Z,9.02
2022-07-28T17:16:13.183Z,8.95
2022-07-28T17:18:40.114Z,9.15
2022-07-28T17:21:06.823Z,8.73
2022-07-28T17:23:36.475Z,8.95
2022-07-28T17:27:11.829Z,8.88
2022-07-28T17:28:52.022Z,8.73
2022-07-28T17:31:18.830Z,9.15
2022-07-28T17:33:45.490Z,8.10
2022-07-28T17:36:12.410Z,7.88
2022-07-28T17:38:39.022Z,7.68
2022-07-28T17:41:07.547Z,8.68
2022-07-28T17:43:34.996Z,7.80
2022-07-28T17:46:02.838Z,6.30
2022-07-28T17:48:35.617Z,6.70
2022-07-28T17:51:02.488Z,7.35
2022-07-28T17:53:29.152Z,7.88
2022-07-28T17:56:00.302Z,8.30
2022-07-28T17:58:31.086Z,8.63
2022-07-28T18:01:10.223Z,8.93
2022-07-28T18:03:58.333Z,8.48
2022-07-28T18:06:34.042Z,5.72
2022-07-28T18:09:06.258Z,5.75
2022-07-28T18:11:36.027Z,3.70
2022-07-28T18:14:05.505Z,2.97
2022-07-28T18:16:35.239Z,2.60
2022-07-28T18:19:03.598Z,2.90
2022-07-28T18:21:30.323Z,3.00
2022-07-28T18:23:57.008Z,2.80
2022-07-28T18:26:23.638Z,2.00
2022-07-28T18:28:50.717Z,1.55
2022-07-28T18:31:17.460Z,1.90
2022-07-28T18:33:44.269Z,1.60
2022-07-28T18:36:11.089Z,1.80
2022-07-28T18:38:37.759Z,2.30
2022-07-28T18:41:04.576Z,2.10
2022-07-28T18:43:31.222Z,3.40
2022-07-28T18:45:57.969Z,2.53
2022-07-28T18:48:25.652Z,2.20
2022-07-28T18:50:52.794Z,3.00
2022-07-28T18:53:19.519Z,2.83
2022-07-28T18:55:46.331Z,4.70
2022-07-28T18:58:12.961Z,3.25
2022-07-28T19:00:39.781Z,3.03
2022-07-28T19:03:06.672Z,3.80
2022-07-28T19:05:36.881Z,1.30
2022-07-28T19:08:05.452Z,1.98
2022-07-28T19:10:32.707Z,1.17
2022-07-28T19:13:02.714Z,1.52
2022-07-28T19:15:29.737Z,1.95
2022-07-28T19:18:11.528Z,1.95
2022-07-28T19:20:44.746Z,3.38
2022-07-28T19:23:11.998Z,3.30
2022-07-28T19:25:40.002Z,4.47
2022-07-28T19:28:07.267Z,4.20
2022-07-28T19:30:35.330Z,4.75
2022-07-28T19:33:03.230Z,4.88
2022-07-28T19:35:30.425Z,4.50
2022-07-28T19:37:59.838Z,4.22
2022-07-28T19:40:29.232Z,4.15
2022-07-28T19:42:57.581Z,4.10
2022-07-28T19:45:25.108Z,4.70
2022-07-28T19:47:52.111Z,4.75
2022-07-28T19:50:18.832Z,3.90
2022-07-28T19:52:45.502Z,4.53
2022-07-28T19:55:12.912Z,4.60
2022-07-28T19:57:45.883Z,4.70
2022-07-28T20:00:13.844Z,4.10
2022-07-28T20:02:41.387Z,3.83
2022-07-28T20:05:08.807Z,4.00
2022-07-28T20:07:36.259Z,4.30
2022-07-28T20:10:03.799Z,4.53
2022-07-28T20:12:34.364Z,4.47
2022-07-28T20:15:04.960Z,4.55
2022-07-28T20:17:38.613Z,5.90
2022-07-28T20:20:11.896Z,5.90
2022-07-28T20:22:39.839Z,5.80
2022-07-28T20:25:09.457Z,6.55
2022-07-28T20:27:41.162Z,6.78
2022-07-28T20:30:11.089Z,6.22
2022-07-28T20:32:38.876Z,6.20
2022-07-28T20:35:08.937Z,8.77
2022-07-28T20:37:37.636Z,6.70
2022-07-28T20:40:06.231Z,7.57
2022-07-28T20:42:33.130Z,7.90
2022-07-28T20:44:59.768Z,6.22
2022-07-28T20:47:27.877Z,7.28
2022-07-28T20:49:55.424Z,6.10
2022-07-28T20:52:22.417Z,6.18
2022-07-28T20:54:53.948Z,6.65
2022-07-28T20:57:21.628Z,6.85
2022-07-28T20:59:49.256Z,6.43
2022-07-28T21:02:16.007Z,5.63
2022-07-28T21:04:42.735Z,6.75
2022-07-28T21:07:10.782Z,6.25
2022-07-28T21:09:38.023Z,4.30
2022-07-28T21:12:05.766Z,6.03
2022-07-28T21:14:32.814Z,6.05
2022-07-28T21:17:00.346Z,6.38
2022-07-28T21:19:27.546Z,6.72
2022-07-28T21:21:54.441Z,6.45
2022-07-28T21:24:21.232Z,6.18
2022-07-28T21:26:49.704Z,6.53
2022-07-28T21:32:04.246Z,6.95
2022-07-28T21:34:31.634Z,6.30
2022-07-28T21:37:02.244Z,6.03
2022-07-28T21:39:28.976Z,6.97
2022-07-28T21:41:55.873Z,6.80
2022-07-28T21:44:22.677Z,6.93
2022-07-28T21:46:49.371Z,7.18
2022-07-28T21:49:16.244Z,7.07
2022-07-28T21:51:42.927Z,7.07
2022-07-28T21:54:09.618Z,7.05
2022-07-28T21:56:36.375Z,7.32
2022-07-28T21:59:03.368Z,6.95
2022-07-28T22:01:30.395Z,6.97
2022-07-28T22:03:57.399Z,6.75
2022-07-28T22:06:24.289Z,7.38
2022-07-28T22:08:53.960Z,7.22
2022-07-28T22:11:22.040Z,7.70
2022-07-28T22:13:48.885Z,8.05
2022-07-28T22:16:15.700Z,8.05
2022-07-28T22:18:42.753Z,8.70
2022-07-28T22:21:09.547Z,8.55
2022-07-28T22:23:36.275Z,9.35
2022-07-28T22:26:03.605Z,9.65
2022-07-28T22:28:30.644Z,9.70
2022-07-28T22:31:09.131Z,9.55
2022-07-28T22:33:40.341Z,7.50
2022-07-28T22:36:09.198Z,7.15
2022-07-28T22:38:36.275Z,7.20
2022-07-28T22:41:03.608Z,7.20
2022-07-28T22:43:33.294Z,7.25
2022-07-28T22:46:00.138Z,7.30
2022-07-28T22:48:26.877Z,6.00
2022-07-28T22:50:53.645Z,6.47
2022-07-28T22:53:20.375Z,6.60
2022-07-28T22:58:31.308Z,6.50
2022-07-28T23:00:58.478Z,6.75
2022-07-28T23:03:25.797Z,6.55
2022-07-28T23:06:00.725Z,6.82
2022-07-28T23:08:27.873Z,6.93
2022-07-28T23:10:55.083Z,7.10
2022-07-28T23:13:21.766Z,7.47
2022-07-28T23:15:48.572Z,7.57
2022-07-28T23:18:15.595Z,7.22
2022-07-28T23:20:43.726Z,7.15
2022-07-28T23:23:11.358Z,7.13
2022-07-28T23:25:40.633Z,7.70
2022-07-28T23:28:08.169Z,7.63
2022-07-28T23:30:35.081Z,7.20
2022-07-28T23:33:01.843Z,7.60
2022-07-28T23:35:28.756Z,7.10
2022-07-28T23:37:55.528Z,8.00
2022-07-28T23:40:22.372Z,7.72
2022-07-28T23:42:49.182Z,7.47
2022-07-28T23:45:15.961Z,7.65
2022-07-28T23:47:42.662Z,7.63
2022-07-28T23:50:09.618Z,8.10
2022-07-28T23:52:36.522Z,7.70
2022-07-28T23:55:03.477Z,7.78
2022-07-28T23:57:31.486Z,7.63
2022-07-28T23:59:59.601Z,7.30
